WZZ306 EDDS-LHBP
Flight info
| Callsign | WZZ306 |
|---|---|
| Flight time | 1h 3m |
| Altitude | 35000 |
| Route | ABTAL4H/07 ABTAL L173 RIXED Y161 RIDAR Z98 MIQ L605 BIBAG Q104 AKIMA DCT MAREG DCT ANEXA |
| Aircraft | A321/M-SDE3FGHIRWY/LB1 |
Departure
| Time | 2026-05-04 17:55 |
|---|---|
| Airport | Stuttgart Airport (EDDS) |
Arrival
| Time | 2026-05-04 18:58 |
|---|---|
| Airport | Budapest Liszt Ferenc International Airport (LHBP) |
| Time | Latitude | Longitude | Altitude | Speed | Heading |
|---|---|---|---|---|---|
| 2026-05-04 17:30 | 48.69060 | 9.19973 | 1307 ft | 0 kts | 343° |
| 2026-05-04 17:48 | 48.69056 | 9.19975 | 1307 ft | 3 kts | 343° |
| 2026-05-04 17:48 | 48.69030 | 9.19989 | 1307 ft | 4 kts | 334° |
| 2026-05-04 17:48 | 48.69007 | 9.20009 | 1305 ft | 4 kts | 319° |
| 2026-05-04 17:49 | 48.68992 | 9.20038 | 1303 ft | 4 kts | 278° |
| 2026-05-04 17:49 | 48.68992 | 9.20058 | 1302 ft | 1 kts | 237° |
| 2026-05-04 17:52 | 48.68991 | 9.20056 | 1302 ft | 1 kts | 237° |
| 2026-05-04 17:52 | 48.68985 | 9.20042 | 1302 ft | 3 kts | 237° |
| 2026-05-04 17:52 | 48.68967 | 9.19999 | 1303 ft | 7 kts | 237° |
| 2026-05-04 17:53 | 48.68936 | 9.19924 | 1303 ft | 10 kts | 239° |
| 2026-05-04 17:53 | 48.68866 | 9.19883 | 1301 ft | 16 kts | 167° |
| 2026-05-04 17:53 | 48.68745 | 9.19953 | 1293 ft | 20 kts | 161° |
| 2026-05-04 17:53 | 48.68607 | 9.20058 | 1283 ft | 25 kts | 123° |
| 2026-05-04 17:54 | 48.68631 | 9.20318 | 1279 ft | 28 kts | 74° |
| 2026-05-04 17:54 | 48.68741 | 9.20888 | 1269 ft | 94 kts | 74° |
| 2026-05-04 17:54 | 48.68989 | 9.22186 | 1240 ft | 159 kts | 74° |
| 2026-05-04 17:54 | 48.69299 | 9.23925 | 1706 ft | 169 kts | 73° |
| 2026-05-04 17:55 | 48.69595 | 9.25614 | 2592 ft | 163 kts | 70° |
| 2026-05-04 17:55 | 48.69904 | 9.27231 | 3265 ft | 166 kts | 70° |
| 2026-05-04 17:55 | 48.70254 | 9.28999 | 3564 ft | 184 kts | 70° |
| 2026-05-04 17:55 | 48.70635 | 9.30913 | 3914 ft | 198 kts | 71° |
| 2026-05-04 17:56 | 48.71048 | 9.32985 | 4272 ft | 213 kts | 73° |
| 2026-05-04 17:56 | 48.71486 | 9.35186 | 4697 ft | 225 kts | 74° |
| 2026-05-04 17:56 | 48.71941 | 9.37564 | 5027 ft | 244 kts | 75° |
| 2026-05-04 17:56 | 48.72424 | 9.40160 | 5405 ft | 265 kts | 76° |
| 2026-05-04 17:57 | 48.72929 | 9.42894 | 6088 ft | 274 kts | 76° |
| 2026-05-04 17:57 | 48.73448 | 9.45702 | 6828 ft | 279 kts | 76° |
| 2026-05-04 17:57 | 48.73977 | 9.48561 | 7589 ft | 284 kts | 76° |
| 2026-05-04 17:57 | 48.74516 | 9.51462 | 8384 ft | 288 kts | 77° |
| 2026-05-04 17:58 | 48.75065 | 9.54406 | 9176 ft | 293 kts | 77° |
| 2026-05-04 17:58 | 48.75623 | 9.57393 | 9955 ft | 297 kts | 77° |
| 2026-05-04 17:58 | 48.76197 | 9.60471 | 10378 ft | 314 kts | 77° |
| 2026-05-04 17:58 | 48.76811 | 9.63776 | 10572 ft | 337 kts | 77° |
| 2026-05-04 17:59 | 48.77460 | 9.67267 | 11063 ft | 349 kts | 76° |
| 2026-05-04 17:59 | 48.78126 | 9.70829 | 11737 ft | 353 kts | 76° |
| 2026-05-04 17:59 | 48.79476 | 9.78082 | 13160 ft | 361 kts | 76° |
| 2026-05-04 18:00 | 48.80160 | 9.81772 | 13767 ft | 366 kts | 76° |
| 2026-05-04 18:00 | 48.80850 | 9.85501 | 13932 ft | 367 kts | 76° |
| 2026-05-04 18:00 | 48.81537 | 9.89228 | 13977 ft | 367 kts | 76° |
| 2026-05-04 18:00 | 48.82225 | 9.92959 | 13982 ft | 367 kts | 76° |
| 2026-05-04 18:01 | 48.82909 | 9.96684 | 13978 ft | 367 kts | 76° |
| 2026-05-04 18:01 | 48.83591 | 10.00414 | 13977 ft | 367 kts | 76° |
| 2026-05-04 18:01 | 48.84274 | 10.04146 | 13982 ft | 367 kts | 76° |
| 2026-05-04 18:02 | 48.85250 | 10.11701 | 13974 ft | 364 kts | 90° |
| 2026-05-04 18:02 | 48.85080 | 10.15520 | 14191 ft | 364 kts | 99° |
| 2026-05-04 18:02 | 48.84729 | 10.19336 | 14894 ft | 366 kts | 101° |
| 2026-05-04 18:02 | 48.84302 | 10.23175 | 15470 ft | 372 kts | 102° |
| 2026-05-04 18:03 | 48.83814 | 10.27069 | 15972 ft | 380 kts | 103° |
| 2026-05-04 18:03 | 48.83289 | 10.31035 | 16483 ft | 387 kts | 103° |
| 2026-05-04 18:03 | 48.82748 | 10.35073 | 16999 ft | 394 kts | 103° |
| 2026-05-04 18:03 | 48.82205 | 10.39178 | 17524 ft | 400 kts | 103° |
| 2026-05-04 18:04 | 48.81663 | 10.43355 | 18061 ft | 406 kts | 103° |
| 2026-05-04 18:04 | 48.81122 | 10.47590 | 18559 ft | 412 kts | 103° |
| 2026-05-04 18:04 | 48.80025 | 10.56236 | 19490 ft | 422 kts | 103° |
| 2026-05-04 18:05 | 48.79467 | 10.60632 | 19979 ft | 427 kts | 103° |
| 2026-05-04 18:05 | 48.78901 | 10.65068 | 20472 ft | 430 kts | 103° |
| 2026-05-04 18:05 | 48.78326 | 10.69537 | 20971 ft | 433 kts | 103° |
| 2026-05-04 18:05 | 48.77746 | 10.74019 | 21476 ft | 436 kts | 103° |
| 2026-05-04 18:06 | 48.76563 | 10.83075 | 22512 ft | 440 kts | 103° |
| 2026-05-04 18:06 | 48.75967 | 10.87626 | 23035 ft | 441 kts | 103° |
| 2026-05-04 18:06 | 48.75368 | 10.92191 | 23568 ft | 442 kts | 103° |
| 2026-05-04 18:07 | 48.74778 | 10.96707 | 24015 ft | 443 kts | 103° |
| 2026-05-04 18:07 | 48.74176 | 11.01291 | 24479 ft | 444 kts | 103° |
| 2026-05-04 18:07 | 48.73568 | 11.05883 | 24939 ft | 445 kts | 103° |
| 2026-05-04 18:07 | 48.72955 | 11.10476 | 25432 ft | 445 kts | 103° |
| 2026-05-04 18:08 | 48.72342 | 11.15071 | 25919 ft | 445 kts | 103° |
| 2026-05-04 18:08 | 48.71727 | 11.19684 | 26308 ft | 448 kts | 103° |
| 2026-05-04 18:08 | 48.71108 | 11.24319 | 26689 ft | 451 kts | 103° |
| 2026-05-04 18:08 | 48.70479 | 11.28988 | 27052 ft | 454 kts | 103° |
| 2026-05-04 18:09 | 48.69206 | 11.38387 | 27822 ft | 458 kts | 103° |
| 2026-05-04 18:09 | 48.67917 | 11.47857 | 28630 ft | 461 kts | 103° |
| 2026-05-04 18:10 | 48.67268 | 11.52606 | 29043 ft | 462 kts | 103° |
| 2026-05-04 18:10 | 48.66616 | 11.57364 | 29462 ft | 463 kts | 103° |
| 2026-05-04 18:10 | 48.65960 | 11.62131 | 29888 ft | 464 kts | 103° |
| 2026-05-04 18:10 | 48.65303 | 11.66910 | 30266 ft | 464 kts | 103° |
| 2026-05-04 18:11 | 48.64643 | 11.71695 | 30641 ft | 465 kts | 103° |
| 2026-05-04 18:11 | 48.63978 | 11.76481 | 31020 ft | 466 kts | 104° |
| 2026-05-04 18:11 | 48.63309 | 11.81272 | 31385 ft | 466 kts | 104° |
| 2026-05-04 18:11 | 48.62635 | 11.86070 | 31769 ft | 467 kts | 104° |
| 2026-05-04 18:12 | 48.61956 | 11.90869 | 32165 ft | 467 kts | 104° |
| 2026-05-04 18:12 | 48.61279 | 11.95660 | 32563 ft | 466 kts | 104° |
| 2026-05-04 18:12 | 48.60601 | 12.00449 | 32967 ft | 466 kts | 104° |
| 2026-05-04 18:12 | 48.59923 | 12.05230 | 33340 ft | 466 kts | 105° |
| 2026-05-04 18:13 | 48.59241 | 12.10028 | 33542 ft | 469 kts | 105° |
| 2026-05-04 18:13 | 48.58552 | 12.14855 | 33834 ft | 470 kts | 105° |
| 2026-05-04 18:13 | 48.57174 | 12.24501 | 34381 ft | 470 kts | 105° |
| 2026-05-04 18:14 | 48.56481 | 12.29333 | 34632 ft | 471 kts | 105° |
| 2026-05-04 18:14 | 48.55783 | 12.34167 | 34862 ft | 472 kts | 105° |
| 2026-05-04 18:14 | 48.55080 | 12.39007 | 34914 ft | 472 kts | 105° |
| 2026-05-04 18:15 | 48.52260 | 12.58349 | 34917 ft | 472 kts | 105° |
| 2026-05-04 18:16 | 48.51078 | 12.66379 | 34918 ft | 472 kts | 105° |
| 2026-05-04 18:16 | 48.49647 | 12.76032 | 34914 ft | 472 kts | 105° |
| 2026-05-04 18:17 | 48.47485 | 12.90495 | 34914 ft | 472 kts | 105° |
| 2026-05-04 18:18 | 48.45302 | 13.04947 | 34902 ft | 472 kts | 105° |
| 2026-05-04 18:18 | 48.43840 | 13.14583 | 34906 ft | 472 kts | 105° |
| 2026-05-04 18:19 | 48.41615 | 13.29089 | 34903 ft | 473 kts | 104° |
| 2026-05-04 18:19 | 48.40953 | 13.38905 | 34907 ft | 475 kts | 96° |
| 2026-05-04 18:20 | 48.40512 | 13.48827 | 34900 ft | 475 kts | 95° |
| 2026-05-04 18:20 | 48.40048 | 13.58734 | 34911 ft | 474 kts | 96° |
| 2026-05-04 18:21 | 48.39571 | 13.68632 | 34911 ft | 474 kts | 96° |
| 2026-05-04 18:21 | 48.39090 | 13.78520 | 34909 ft | 474 kts | 96° |
| 2026-05-04 18:22 | 48.38607 | 13.88403 | 34910 ft | 474 kts | 96° |
| 2026-05-04 18:22 | 48.38113 | 13.98276 | 34910 ft | 473 kts | 96° |
| 2026-05-04 18:23 | 48.37610 | 14.08139 | 34908 ft | 473 kts | 96° |
| 2026-05-04 18:23 | 48.37097 | 14.17994 | 34908 ft | 473 kts | 96° |
| 2026-05-04 18:24 | 48.36577 | 14.27849 | 34908 ft | 473 kts | 96° |
| 2026-05-04 18:24 | 48.36048 | 14.37698 | 34903 ft | 473 kts | 96° |
| 2026-05-04 18:25 | 48.35506 | 14.47545 | 34906 ft | 473 kts | 96° |
| 2026-05-04 18:25 | 48.34956 | 14.57398 | 34910 ft | 473 kts | 96° |
| 2026-05-04 18:26 | 48.34406 | 14.67193 | 34916 ft | 473 kts | 96° |
| 2026-05-04 18:26 | 48.33848 | 14.77050 | 34915 ft | 473 kts | 96° |
| 2026-05-04 18:27 | 48.33277 | 14.86913 | 34919 ft | 474 kts | 96° |
| 2026-05-04 18:27 | 48.32700 | 14.96786 | 34927 ft | 475 kts | 96° |
| 2026-05-04 18:28 | 48.32108 | 15.06676 | 34917 ft | 476 kts | 96° |
| 2026-05-04 18:28 | 48.31496 | 15.16588 | 34919 ft | 477 kts | 96° |
| 2026-05-04 18:29 | 48.30877 | 15.26575 | 34914 ft | 477 kts | 96° |
| 2026-05-04 18:29 | 48.30264 | 15.36506 | 34920 ft | 477 kts | 96° |
| 2026-05-04 18:30 | 48.29329 | 15.51400 | 34927 ft | 478 kts | 96° |
| 2026-05-04 18:31 | 48.28684 | 15.61336 | 34933 ft | 478 kts | 96° |
| 2026-05-04 18:31 | 48.28358 | 15.66317 | 34494 ft | 480 kts | 96° |
| 2026-05-04 18:31 | 48.28029 | 15.71292 | 33897 ft | 478 kts | 96° |
| 2026-05-04 18:31 | 48.27701 | 15.76233 | 33551 ft | 476 kts | 96° |
| 2026-05-04 18:32 | 48.27371 | 15.81192 | 33151 ft | 478 kts | 96° |
| 2026-05-04 18:32 | 48.27042 | 15.86161 | 32750 ft | 479 kts | 95° |
| 2026-05-04 18:32 | 48.26711 | 15.91132 | 32353 ft | 479 kts | 95° |
| 2026-05-04 18:32 | 48.26377 | 15.96101 | 31993 ft | 479 kts | 95° |
| 2026-05-04 18:33 | 48.26039 | 16.01074 | 31892 ft | 479 kts | 96° |
| 2026-05-04 18:33 | 48.25346 | 16.11028 | 31926 ft | 481 kts | 95° |
| 2026-05-04 18:34 | 48.24641 | 16.21011 | 31941 ft | 481 kts | 96° |
| 2026-05-04 18:34 | 48.23939 | 16.30992 | 31945 ft | 481 kts | 95° |
| 2026-05-04 18:35 | 48.23232 | 16.40968 | 31941 ft | 481 kts | 96° |
| 2026-05-04 18:35 | 48.22506 | 16.50935 | 31907 ft | 481 kts | 95° |
| 2026-05-04 18:35 | 48.22140 | 16.55914 | 31524 ft | 480 kts | 95° |
| 2026-05-04 18:36 | 48.21773 | 16.60887 | 31139 ft | 480 kts | 96° |
| 2026-05-04 18:36 | 48.21402 | 16.65863 | 30768 ft | 480 kts | 96° |
| 2026-05-04 18:36 | 48.21028 | 16.70834 | 30403 ft | 481 kts | 96° |
| 2026-05-04 18:36 | 48.20654 | 16.75816 | 30042 ft | 481 kts | 96° |
| 2026-05-04 18:37 | 48.20281 | 16.80806 | 29616 ft | 482 kts | 96° |
| 2026-05-04 18:37 | 48.19910 | 16.85741 | 29211 ft | 483 kts | 96° |
| 2026-05-04 18:37 | 48.19529 | 16.90743 | 28933 ft | 484 kts | 96° |
| 2026-05-04 18:38 | 48.18256 | 17.00695 | 28969 ft | 485 kts | 108° |
| 2026-05-04 18:38 | 48.16177 | 17.10327 | 28384 ft | 487 kts | 108° |
| 2026-05-04 18:38 | 48.15139 | 17.15126 | 27806 ft | 479 kts | 108° |
| 2026-05-04 18:39 | 48.14132 | 17.19795 | 27665 ft | 463 kts | 108° |
| 2026-05-04 18:39 | 48.13163 | 17.24300 | 27499 ft | 448 kts | 108° |
| 2026-05-04 18:39 | 48.12214 | 17.28702 | 27125 ft | 439 kts | 108° |
| 2026-05-04 18:39 | 48.11910 | 17.30107 | 27001 ft | 437 kts | 108° |
| 2026-05-04 18:40 | 48.11809 | 17.30575 | 26954 ft | 436 kts | 107° |
| 2026-05-04 18:40 | 48.10981 | 17.34359 | 26627 ft | 429 kts | 108° |
| 2026-05-04 18:40 | 48.10063 | 17.38561 | 26245 ft | 421 kts | 108° |
| 2026-05-04 18:40 | 48.09150 | 17.42751 | 25868 ft | 415 kts | 108° |
| 2026-05-04 18:41 | 48.08144 | 17.46696 | 25465 ft | 410 kts | 114° |
| 2026-05-04 18:41 | 48.06981 | 17.50578 | 25001 ft | 409 kts | 114° |
| 2026-05-04 18:41 | 48.05776 | 17.54498 | 24551 ft | 421 kts | 115° |
| 2026-05-04 18:41 | 48.04532 | 17.58475 | 24113 ft | 423 kts | 115° |
| 2026-05-04 18:42 | 48.03283 | 17.62443 | 23683 ft | 421 kts | 115° |
| 2026-05-04 18:42 | 48.02440 | 17.65121 | 23357 ft | 420 kts | 115° |
| 2026-05-04 18:42 | 48.01723 | 17.67401 | 23063 ft | 419 kts | 115° |
| 2026-05-04 18:42 | 48.00494 | 17.71329 | 22511 ft | 416 kts | 115° |
| 2026-05-04 18:43 | 47.99257 | 17.75286 | 21917 ft | 414 kts | 115° |
| 2026-05-04 18:43 | 47.98045 | 17.79167 | 21369 ft | 411 kts | 115° |
| 2026-05-04 18:43 | 47.96844 | 17.83022 | 20861 ft | 408 kts | 115° |
| 2026-05-04 18:43 | 47.95649 | 17.86849 | 20359 ft | 406 kts | 116° |
| 2026-05-04 18:44 | 47.94457 | 17.90647 | 19872 ft | 403 kts | 116° |
| 2026-05-04 18:44 | 47.93672 | 17.93144 | 19546 ft | 400 kts | 116° |
| 2026-05-04 18:44 | 47.92114 | 17.98091 | 18913 ft | 396 kts | 116° |
| 2026-05-04 18:44 | 47.90948 | 18.01789 | 18441 ft | 392 kts | 116° |
| 2026-05-04 18:45 | 47.89794 | 18.05452 | 17917 ft | 389 kts | 117° |
| 2026-05-04 18:45 | 47.88651 | 18.09075 | 17386 ft | 385 kts | 117° |
| 2026-05-04 18:45 | 47.87518 | 18.12664 | 16870 ft | 381 kts | 117° |
| 2026-05-04 18:45 | 47.86397 | 18.16207 | 16356 ft | 376 kts | 117° |
| 2026-05-04 18:46 | 47.85284 | 18.19712 | 15868 ft | 372 kts | 117° |
| 2026-05-04 18:46 | 47.84183 | 18.23166 | 15415 ft | 367 kts | 117° |
| 2026-05-04 18:46 | 47.83095 | 18.26576 | 14958 ft | 363 kts | 117° |
| 2026-05-04 18:46 | 47.82020 | 18.29947 | 14498 ft | 359 kts | 117° |
| 2026-05-04 18:47 | 47.80958 | 18.33279 | 14042 ft | 354 kts | 117° |
| 2026-05-04 18:47 | 47.79913 | 18.36552 | 13576 ft | 347 kts | 117° |
| 2026-05-04 18:47 | 47.78884 | 18.39763 | 13079 ft | 341 kts | 117° |
| 2026-05-04 18:47 | 47.77872 | 18.42917 | 12580 ft | 335 kts | 117° |
| 2026-05-04 18:48 | 47.76876 | 18.46023 | 12095 ft | 331 kts | 117° |
| 2026-05-04 18:48 | 47.75893 | 18.49088 | 11618 ft | 326 kts | 117° |
| 2026-05-04 18:48 | 47.74925 | 18.52115 | 11153 ft | 322 kts | 117° |
| 2026-05-04 18:48 | 47.73969 | 18.55102 | 10719 ft | 318 kts | 117° |
| 2026-05-04 18:49 | 47.73023 | 18.58048 | 10283 ft | 314 kts | 117° |
| 2026-05-04 18:49 | 47.72086 | 18.60953 | 9864 ft | 310 kts | 118° |
| 2026-05-04 18:49 | 47.71167 | 18.63787 | 9707 ft | 300 kts | 118° |
| 2026-05-04 18:49 | 47.70269 | 18.66552 | 9318 ft | 296 kts | 118° |
| 2026-05-04 18:50 | 47.69379 | 18.69299 | 8841 ft | 294 kts | 118° |
| 2026-05-04 18:50 | 47.68495 | 18.72027 | 8370 ft | 293 kts | 117° |
| 2026-05-04 18:50 | 47.67616 | 18.74734 | 7846 ft | 290 kts | 118° |
| 2026-05-04 18:50 | 47.66743 | 18.77415 | 7264 ft | 288 kts | 118° |
| 2026-05-04 18:51 | 47.65880 | 18.80070 | 6803 ft | 283 kts | 117° |
| 2026-05-04 18:51 | 47.65026 | 18.82682 | 6371 ft | 282 kts | 118° |
| 2026-05-04 18:51 | 47.64164 | 18.85307 | 5914 ft | 284 kts | 118° |
| 2026-05-04 18:51 | 47.63303 | 18.87957 | 5465 ft | 286 kts | 118° |
| 2026-05-04 18:52 | 47.62465 | 18.90585 | 5268 ft | 277 kts | 118° |
| 2026-05-04 18:52 | 47.61674 | 18.93109 | 5139 ft | 261 kts | 118° |
| 2026-05-04 18:52 | 47.60937 | 18.95464 | 5001 ft | 242 kts | 121° |
| 2026-05-04 18:52 | 47.60014 | 18.97453 | 4773 ft | 230 kts | 134° |
| 2026-05-04 18:53 | 47.58946 | 18.99206 | 4488 ft | 228 kts | 136° |
| 2026-05-04 18:53 | 47.57873 | 19.00933 | 4185 ft | 227 kts | 136° |
| 2026-05-04 18:53 | 47.56822 | 19.02644 | 3899 ft | 222 kts | 136° |
| 2026-05-04 18:53 | 47.55794 | 19.04322 | 3594 ft | 216 kts | 136° |
| 2026-05-04 18:54 | 47.54815 | 19.05920 | 3321 ft | 205 kts | 136° |
| 2026-05-04 18:54 | 47.53898 | 19.07415 | 3080 ft | 186 kts | 137° |
| 2026-05-04 18:54 | 47.53052 | 19.08793 | 2830 ft | 177 kts | 137° |
| 2026-05-04 18:54 | 47.52233 | 19.10112 | 2584 ft | 170 kts | 138° |
| 2026-05-04 18:55 | 47.51469 | 19.11335 | 2435 ft | 156 kts | 138° |
| 2026-05-04 18:55 | 47.50106 | 19.13618 | 2008 ft | 142 kts | 137° |
| 2026-05-04 18:55 | 47.49443 | 19.14679 | 1809 ft | 139 kts | 140° |
| 2026-05-04 18:56 | 47.48780 | 19.15720 | 1630 ft | 139 kts | 137° |
| 2026-05-04 18:56 | 47.48146 | 19.16799 | 1483 ft | 140 kts | 134° |
| 2026-05-04 18:56 | 47.47497 | 19.17858 | 1287 ft | 139 kts | 137° |
| 2026-05-04 18:56 | 47.46832 | 19.18903 | 1069 ft | 139 kts | 136° |
| 2026-05-04 18:57 | 47.46169 | 19.19950 | 903 ft | 140 kts | 134° |
| 2026-05-04 18:57 | 47.45523 | 19.21020 | 686 ft | 139 kts | 133° |
| 2026-05-04 18:57 | 47.44875 | 19.22079 | 507 ft | 139 kts | 134° |
| 2026-05-04 18:57 | 47.44454 | 19.22755 | 452 ft | 126 kts | 133° |
| 2026-05-04 18:58 | 47.43960 | 19.23548 | 455 ft | 89 kts | 132° |
| 2026-05-04 18:58 | 47.43583 | 19.24156 | 453 ft | 73 kts | 133° |
| 2026-05-04 18:58 | 47.43277 | 19.24652 | 455 ft | 46 kts | 132° |
| 2026-05-04 18:58 | 47.43117 | 19.24914 | 457 ft | 22 kts | 126° |
| 2026-05-04 18:59 | 47.43161 | 19.25142 | 456 ft | 11 kts | 43° |
| 2026-05-04 18:59 | 47.43187 | 19.25178 | 457 ft | 5 kts | 43° |
| 2026-05-04 18:59 | 47.43220 | 19.25222 | 457 ft | 7 kts | 42° |
| 2026-05-04 18:59 | 47.43234 | 19.25241 | 457 ft | 3 kts | 42° |
| 2026-05-04 19:00 | 47.43257 | 19.25271 | 457 ft | 5 kts | 42° |
| 2026-05-04 19:00 | 47.43281 | 19.25303 | 457 ft | 5 kts | 42° |
| 2026-05-04 19:00 | 47.43318 | 19.25352 | 457 ft | 9 kts | 42° |
| 2026-05-04 19:00 | 47.43369 | 19.25421 | 457 ft | 11 kts | 42° |
| 2026-05-04 19:01 | 47.43432 | 19.25505 | 457 ft | 13 kts | 42° |
| 2026-05-04 19:01 | 47.43507 | 19.25605 | 457 ft | 16 kts | 42° |
| 2026-05-04 19:01 | 47.43622 | 19.25759 | 456 ft | 18 kts | 42° |
| 2026-05-04 19:01 | 47.43687 | 19.25847 | 457 ft | 19 kts | 42° |
| 2026-05-04 19:02 | 47.43717 | 19.26001 | 455 ft | 18 kts | 126° |
| 2026-05-04 19:02 | 47.43676 | 19.26169 | 457 ft | 19 kts | 86° |
| 2026-05-04 19:02 | 47.43658 | 19.26361 | 456 ft | 20 kts | 126° |
| 2026-05-04 19:02 | 47.43592 | 19.26424 | 458 ft | 10 kts | 205° |
| 2026-05-04 19:03 | 47.43565 | 19.26392 | 456 ft | 2 kts | 221° |
| 2026-05-04 19:03 | 47.43563 | 19.26389 | 457 ft | 0 kts | 221° |